sensor_id;sensor_type;location;lat;lon;timestamp;temperature;humidity
68257;DHT22;55069;51.568;4.656;2023-08-01T00:00:09;16.24;92.77
68257;DHT22;55069;51.568;4.656;2023-08-01T00:02:39;16.21;92.94
68257;DHT22;55069;51.568;4.656;2023-08-01T00:05:08;16.17;93.11
68257;DHT22;55069;51.568;4.656;2023-08-01T00:07:33;16.15;92.95
68257;DHT22;55069;51.568;4.656;2023-08-01T00:09:59;16.20;92.68
68257;DHT22;55069;51.568;4.656;2023-08-01T00:12:24;16.17;93.12
68257;DHT22;55069;51.568;4.656;2023-08-01T00:14:50;16.17;92.88
68257;DHT22;55069;51.568;4.656;2023-08-01T00:17:16;16.21;92.76
68257;DHT22;55069;51.568;4.656;2023-08-01T00:19:41;16.15;92.93
68257;DHT22;55069;51.568;4.656;2023-08-01T00:22:07;16.14;92.80
68257;DHT22;55069;51.568;4.656;2023-08-01T00:24:32;16.13;93.03
68257;DHT22;55069;51.568;4.656;2023-08-01T00:26:58;16.07;93.23
68257;DHT22;55069;51.568;4.656;2023-08-01T00:29:23;16.03;93.53
68257;DHT22;55069;51.568;4.656;2023-08-01T00:31:49;15.98;93.49
68257;DHT22;55069;51.568;4.656;2023-08-01T00:34:15;15.96;93.84
68257;DHT22;55069;51.568;4.656;2023-08-01T00:36:40;15.91;93.92
68257;DHT22;55069;51.568;4.656;2023-08-01T00:39:06;15.87;94.15
68257;DHT22;55069;51.568;4.656;2023-08-01T00:41:31;15.84;94.20
68257;DHT22;55069;51.568;4.656;2023-08-01T00:43:57;15.84;94.24
68257;DHT22;55069;51.568;4.656;2023-08-01T00:46:22;15.83;94.34
68257;DHT22;55069;51.568;4.656;2023-08-01T00:48:48;15.82;94.36
68257;DHT22;55069;51.568;4.656;2023-08-01T00:51:14;15.83;94.62
68257;DHT22;55069;51.568;4.656;2023-08-01T00:53:40;15.83;94.69
68257;DHT22;55069;51.568;4.656;2023-08-01T00:56:06;15.87;94.76
68257;DHT22;55069;51.568;4.656;2023-08-01T00:58:31;15.89;94.67
68257;DHT22;55069;51.568;4.656;2023-08-01T01:00:57;15.91;94.71
68257;DHT22;55069;51.568;4.656;2023-08-01T01:03:25;15.87;94.68
68257;DHT22;55069;51.568;4.656;2023-08-01T01:05:57;15.90;94.76
68257;DHT22;55069;51.568;4.656;2023-08-01T01:08:26;15.90;94.67
68257;DHT22;55069;51.568;4.656;2023-08-01T01:10:52;15.89;94.81
68257;DHT22;55069;51.568;4.656;2023-08-01T01:13:17;15.90;94.71
68257;DHT22;55069;51.568;4.656;2023-08-01T01:15:43;15.90;94.80
68257;DHT22;55069;51.568;4.656;2023-08-01T01:18:08;15.93;94.93
68257;DHT22;55069;51.568;4.656;2023-08-01T01:20:35;15.91;94.74
68257;DHT22;55069;51.568;4.656;2023-08-01T01:23:03;16.00;94.71
68257;DHT22;55069;51.568;4.656;2023-08-01T01:25:30;16.03;94.77
68257;DHT22;55069;51.568;4.656;2023-08-01T01:27:56;16.04;94.63
68257;DHT22;55069;51.568;4.656;2023-08-01T01:30:24;16.00;94.62
68257;DHT22;55069;51.568;4.656;2023-08-01T01:32:51;16.04;94.43
68257;DHT22;55069;51.568;4.656;2023-08-01T01:35:17;16.05;94.45
68257;DHT22;55069;51.568;4.656;2023-08-01T01:37:43;16.07;94.30
68257;DHT22;55069;51.568;4.656;2023-08-01T01:40:08;16.07;94.17
68257;DHT22;55069;51.568;4.656;2023-08-01T01:42:34;16.11;94.35
68257;DHT22;55069;51.568;4.656;2023-08-01T01:45:00;16.11;94.30
68257;DHT22;55069;51.568;4.656;2023-08-01T01:47:25;16.10;94.00
68257;DHT22;55069;51.568;4.656;2023-08-01T01:49:52;16.10;94.19
68257;DHT22;55069;51.568;4.656;2023-08-01T01:52:17;16.07;94.13
68257;DHT22;55069;51.568;4.656;2023-08-01T01:54:43;16.10;94.25
68257;DHT22;55069;51.568;4.656;2023-08-01T01:57:08;16.10;94.31
68257;DHT22;55069;51.568;4.656;2023-08-01T01:59:34;16.14;94.45
68257;DHT22;55069;51.568;4.656;2023-08-01T02:01:59;16.14;94.35
68257;DHT22;55069;51.568;4.656;2023-08-01T02:04:25;16.13;94.27
68257;DHT22;55069;51.568;4.656;2023-08-01T02:06:50;16.17;94.16
68257;DHT22;55069;51.568;4.656;2023-08-01T02:09:18;16.17;94.21
68257;DHT22;55069;51.568;4.656;2023-08-01T02:11:44;16.13;94.10
68257;DHT22;55069;51.568;4.656;2023-08-01T02:14:10;16.10;94.29
68257;DHT22;55069;51.568;4.656;2023-08-01T02:16:36;16.07;94.41
68257;DHT22;55069;51.568;4.656;2023-08-01T02:19:01;16.00;94.74
68257;DHT22;55069;51.568;4.656;2023-08-01T02:21:27;15.98;94.57
68257;DHT22;55069;51.568;4.656;2023-08-01T02:23:52;16.00;94.62
68257;DHT22;55069;51.568;4.656;2023-08-01T02:26:18;16.05;94.52
68257;DHT22;55069;51.568;4.656;2023-08-01T02:28:44;16.04;94.61
68257;DHT22;55069;51.568;4.656;2023-08-01T02:31:09;16.03;94.40
68257;DHT22;55069;51.568;4.656;2023-08-01T02:33:35;16.08;94.21
68257;DHT22;55069;51.568;4.656;2023-08-01T02:36:00;16.13;94.09
68257;DHT22;55069;51.568;4.656;2023-08-01T02:38:26;16.08;94.09
68257;DHT22;55069;51.568;4.656;2023-08-01T02:40:51;16.05;94.27
68257;DHT22;55069;51.568;4.656;2023-08-01T02:43:17;16.10;94.13
68257;DHT22;55069;51.568;4.656;2023-08-01T02:45:42;16.08;94.20
68257;DHT22;55069;51.568;4.656;2023-08-01T02:48:08;16.08;94.07
68257;DHT22;55069;51.568;4.656;2023-08-01T02:50:33;16.07;94.16
68257;DHT22;55069;51.568;4.656;2023-08-01T02:52:59;16.08;94.13
68257;DHT22;55069;51.568;4.656;2023-08-01T02:55:24;16.11;94.01
68257;DHT22;55069;51.568;4.656;2023-08-01T02:57:50;16.04;93.89
68257;DHT22;55069;51.568;4.656;2023-08-01T03:00:15;16.04;94.14
68257;DHT22;55069;51.568;4.656;2023-08-01T03:02:42;16.00;94.17
68257;DHT22;55069;51.568;4.656;2023-08-01T03:05:08;15.98;94.26
68257;DHT22;55069;51.568;4.656;2023-08-01T03:07:35;16.00;94.27
68257;DHT22;55069;51.568;4.656;2023-08-01T03:10:01;15.96;94.34
68257;DHT22;55069;51.568;4.656;2023-08-01T03:12:26;15.93;94.47
68257;DHT22;55069;51.568;4.656;2023-08-01T03:14:52;16.00;94.20
68257;DHT22;55069;51.568;4.656;2023-08-01T03:17:17;15.97;94.32
68257;DHT22;55069;51.568;4.656;2023-08-01T03:19:43;15.98;94.30
68257;DHT22;55069;51.568;4.656;2023-08-01T03:22:09;16.00;94.20
68257;DHT22;55069;51.568;4.656;2023-08-01T03:24:35;16.00;94.20
68257;DHT22;55069;51.568;4.656;2023-08-01T03:27:01;15.96;94.36
68257;DHT22;55069;51.568;4.656;2023-08-01T03:29:27;15.94;94.21
68257;DHT22;55069;51.568;4.656;2023-08-01T03:31:53;15.94;94.35
68257;DHT22;55069;51.568;4.656;2023-08-01T03:34:19;15.98;94.28
68257;DHT22;55069;51.568;4.656;2023-08-01T03:36:44;15.97;94.15
68257;DHT22;55069;51.568;4.656;2023-08-01T03:39:10;15.93;94.35
68257;DHT22;55069;51.568;4.656;2023-08-01T03:41:36;15.93;94.29
68257;DHT22;55069;51.568;4.656;2023-08-01T03:44:03;15.90;94.44
68257;DHT22;55069;51.568;4.656;2023-08-01T03:46:29;15.93;94.72
68257;DHT22;55069;51.568;4.656;2023-08-01T03:48:54;15.96;94.36
68257;DHT22;55069;51.568;4.656;2023-08-01T03:51:20;15.93;94.36
68257;DHT22;55069;51.568;4.656;2023-08-01T03:53:46;15.89;94.44
68257;DHT22;55069;51.568;4.656;2023-08-01T03:56:12;15.93;94.57
68257;DHT22;55069;51.568;4.656;2023-08-01T03:58:37;15.90;94.39
68257;DHT22;55069;51.568;4.656;2023-08-01T04:01:03;15.91;94.42
68257;DHT22;55069;51.568;4.656;2023-08-01T04:03:28;15.87;94.61
68257;DHT22;55069;51.568;4.656;2023-08-01T04:05:54;15.89;94.49
68257;DHT22;55069;51.568;4.656;2023-08-01T04:08:20;15.90;94.44
68257;DHT22;55069;51.568;4.656;2023-08-01T04:10:45;15.93;94.26
68257;DHT22;55069;51.568;4.656;2023-08-01T04:13:11;15.93;94.10
68257;DHT22;55069;51.568;4.656;2023-08-01T04:15:36;15.93;94.15
68257;DHT22;55069;51.568;4.656;2023-08-01T04:18:02;15.91;94.21
68257;DHT22;55069;51.568;4.656;2023-08-01T04:20:28;15.93;94.17
68257;DHT22;55069;51.568;4.656;2023-08-01T04:22:53;15.93;94.32
68257;DHT22;55069;51.568;4.656;2023-08-01T04:25:19;15.94;93.83
68257;DHT22;55069;51.568;4.656;2023-08-01T04:27:45;15.98;93.95
68257;DHT22;55069;51.568;4.656;2023-08-01T04:30:11;15.96;94.13
68257;DHT22;55069;51.568;4.656;2023-08-01T04:32:36;16.00;94.04
68257;DHT22;55069;51.568;4.656;2023-08-01T04:35:02;16.01;94.07
68257;DHT22;55069;51.568;4.656;2023-08-01T04:37:27;16.01;93.94
68257;DHT22;55069;51.568;4.656;2023-08-01T04:39:53;16.07;93.88
68257;DHT22;55069;51.568;4.656;2023-08-01T04:42:18;16.10;94.02
68257;DHT22;55069;51.568;4.656;2023-08-01T04:44:44;16.13;93.53
68257;DHT22;55069;51.568;4.656;2023-08-01T04:47:10;16.07;93.44
68257;DHT22;55069;51.568;4.656;2023-08-01T04:49:36;16.05;93.76
68257;DHT22;55069;51.568;4.656;2023-08-01T04:52:02;16.05;94.00
68257;DHT22;55069;51.568;4.656;2023-08-01T04:54:27;16.15;93.67
68257;DHT22;55069;51.568;4.656;2023-08-01T04:56:53;16.10;93.58
68257;DHT22;55069;51.568;4.656;2023-08-01T04:59:18;16.14;93.49
68257;DHT22;55069;51.568;4.656;2023-08-01T05:01:44;16.15;93.88
68257;DHT22;55069;51.568;4.656;2023-08-01T05:04:10;16.08;93.86
68257;DHT22;55069;51.568;4.656;2023-08-01T05:06:36;16.15;93.86
68257;DHT22;55069;51.568;4.656;2023-08-01T05:09:01;16.18;93.89
68257;DHT22;55069;51.568;4.656;2023-08-01T05:11:27;16.14;94.23
68257;DHT22;55069;51.568;4.656;2023-08-01T05:13:52;16.13;94.32
68257;DHT22;55069;51.568;4.656;2023-08-01T05:16:18;16.10;94.46
68257;DHT22;55069;51.568;4.656;2023-08-01T05:18:43;16.01;94.80
68257;DHT22;55069;51.568;4.656;2023-08-01T05:21:09;16.07;94.91
68257;DHT22;55069;51.568;4.656;2023-08-01T05:23:34;16.03;95.20
68257;DHT22;55069;51.568;4.656;2023-08-01T05:26:00;16.00;95.12
68257;DHT22;55069;51.568;4.656;2023-08-01T05:28:25;16.00;95.29
68257;DHT22;55069;51.568;4.656;2023-08-01T05:30:51;16.04;95.32
68257;DHT22;55069;51.568;4.656;2023-08-01T05:33:16;16.04;95.35
68257;DHT22;55069;51.568;4.656;2023-08-01T05:35:42;15.97;95.26
68257;DHT22;55069;51.568;4.656;2023-08-01T05:38:07;15.94;95.26
68257;DHT22;55069;51.568;4.656;2023-08-01T05:40:33;15.97;95.26
68257;DHT22;55069;51.568;4.656;2023-08-01T05:42:58;15.93;94.13
68257;DHT22;55069;51.568;4.656;2023-08-01T05:45:24;16.00;94.29
68257;DHT22;55069;51.568;4.656;2023-08-01T05:47:50;16.08;94.16
68257;DHT22;55069;51.568;4.656;2023-08-01T05:50:15;16.28;93.81
68257;DHT22;55069;51.568;4.656;2023-08-01T05:52:41;16.21;93.82
68257;DHT22;55069;51.568;4.656;2023-08-01T05:55:06;16.21;94.09
68257;DHT22;55069;51.568;4.656;2023-08-01T05:57:32;16.20;94.23
68257;DHT22;55069;51.568;4.656;2023-08-01T05:59:58;16.20;94.67
68257;DHT22;55069;51.568;4.656;2023-08-01T06:02:23;16.29;94.42
68257;DHT22;55069;51.568;4.656;2023-08-01T06:04:49;16.42;94.51
68257;DHT22;55069;51.568;4.656;2023-08-01T06:07:15;16.59;94.11
68257;DHT22;55069;51.568;4.656;2023-08-01T06:09:40;16.73;94.06
68257;DHT22;55069;51.568;4.656;2023-08-01T06:12:06;16.79;93.78
68257;DHT22;55069;51.568;4.656;2023-08-01T06:14:32;16.94;93.70
68257;DHT22;55069;51.568;4.656;2023-08-01T06:16:57;17.17;93.46
68257;DHT22;55069;51.568;4.656;2023-08-01T06:19:23;17.24;92.89
68257;DHT22;55069;51.568;4.656;2023-08-01T06:21:48;17.32;92.50
68257;DHT22;55069;51.568;4.656;2023-08-01T06:24:14;17.32;92.03
68257;DHT22;55069;51.568;4.656;2023-08-01T06:26:39;17.31;91.85
68257;DHT22;55069;51.568;4.656;2023-08-01T06:29:05;17.11;91.41
68257;DHT22;55069;51.568;4.656;2023-08-01T06:31:30;17.11;91.49
68257;DHT22;55069;51.568;4.656;2023-08-01T06:33:56;17.10;90.84
68257;DHT22;55069;51.568;4.656;2023-08-01T06:36:21;17.17;90.85
68257;DHT22;55069;51.568;4.656;2023-08-01T06:38:47;17.10;90.43
68257;DHT22;55069;51.568;4.656;2023-08-01T06:41:12;17.14;90.33
68257;DHT22;55069;51.568;4.656;2023-08-01T06:43:38;17.16;89.93
68257;DHT22;55069;51.568;4.656;2023-08-01T06:46:04;17.18;89.37
68257;DHT22;55069;51.568;4.656;2023-08-01T06:48:31;17.27;90.16
68257;DHT22;55069;51.568;4.656;2023-08-01T06:51:00;17.21;89.23
68257;DHT22;55069;51.568;4.656;2023-08-01T06:53:26;17.18;89.45
68257;DHT22;55069;51.568;4.656;2023-08-01T06:55:52;17.03;89.43
68257;DHT22;55069;51.568;4.656;2023-08-01T06:58:17;17.02;89.55
68257;DHT22;55069;51.568;4.656;2023-08-01T07:00:44;16.99;89.02
68257;DHT22;55069;51.568;4.656;2023-08-01T07:03:09;17.09;88.97
68257;DHT22;55069;51.568;4.656;2023-08-01T07:05:35;17.16;87.43
68257;DHT22;55069;51.568;4.656;2023-08-01T07:08:00;17.23;87.84
68257;DHT22;55069;51.568;4.656;2023-08-01T07:13:48;17.45;87.92
68257;DHT22;55069;51.568;4.656;2023-08-01T07:16:13;17.61;87.44
68257;DHT22;55069;51.568;4.656;2023-08-01T07:18:39;17.81;87.18
68257;DHT22;55069;51.568;4.656;2023-08-01T07:21:04;17.78;85.84
68257;DHT22;55069;51.568;4.656;2023-08-01T07:23:33;18.02;87.56
68257;DHT22;55069;51.568;4.656;2023-08-01T07:25:59;18.12;85.64
68257;DHT22;55069;51.568;4.656;2023-08-01T07:28:25;17.89;84.84
68257;DHT22;55069;51.568;4.656;2023-08-01T07:31:04;17.89;86.37
68257;DHT22;55069;51.568;4.656;2023-08-01T07:33:31;17.85;85.90
68257;DHT22;55069;51.568;4.656;2023-08-01T07:35:59;17.72;86.40
68257;DHT22;55069;51.568;4.656;2023-08-01T07:38:25;17.74;88.18
68257;DHT22;55069;51.568;4.656;2023-08-01T07:40:53;17.58;87.17
68257;DHT22;55069;51.568;4.656;2023-08-01T07:43:19;17.57;86.83
68257;DHT22;55069;51.568;4.656;2023-08-01T07:45:45;17.65;87.27
68257;DHT22;55069;51.568;4.656;2023-08-01T07:48:11;17.54;87.26
68257;DHT22;55069;51.568;4.656;2023-08-01T07:50:36;17.42;88.92
68257;DHT22;55069;51.568;4.656;2023-08-01T07:53:02;17.24;88.56
68257;DHT22;55069;51.568;4.656;2023-08-01T07:55:27;17.11;88.45
68257;DHT22;55069;51.568;4.656;2023-08-01T07:57:53;17.04;89.47
68257;DHT22;55069;51.568;4.656;2023-08-01T08:00:18;16.90;89.12
68257;DHT22;55069;51.568;4.656;2023-08-01T08:02:45;16.91;89.76
68257;DHT22;55069;51.568;4.656;2023-08-01T08:05:11;16.84;88.78
68257;DHT22;55069;51.568;4.656;2023-08-01T08:07:37;16.84;88.85
68257;DHT22;55069;51.568;4.656;2023-08-01T08:10:06;16.93;88.96
68257;DHT22;55069;51.568;4.656;2023-08-01T08:12:32;17.06;89.77
68257;DHT22;55069;51.568;4.656;2023-08-01T08:14:57;17.20;88.26
68257;DHT22;55069;51.568;4.656;2023-08-01T08:17:23;17.42;87.46
68257;DHT22;55069;51.568;4.656;2023-08-01T08:19:48;17.55;87.44
68257;DHT22;55069;51.568;4.656;2023-08-01T08:22:14;17.52;87.59
68257;DHT22;55069;51.568;4.656;2023-08-01T08:24:39;17.27;86.06
68257;DHT22;55069;51.568;4.656;2023-08-01T08:27:05;17.17;86.56
68257;DHT22;55069;51.568;4.656;2023-08-01T08:29:31;17.32;86.82
68257;DHT22;55069;51.568;4.656;2023-08-01T08:31:57;17.34;87.44
68257;DHT22;55069;51.568;4.656;2023-08-01T08:34:22;17.32;87.52
68257;DHT22;55069;51.568;4.656;2023-08-01T08:36:48;17.32;87.96
68257;DHT22;55069;51.568;4.656;2023-08-01T08:39:16;17.31;87.52
68257;DHT22;55069;51.568;4.656;2023-08-01T08:41:59;17.35;88.53
68257;DHT22;55069;51.568;4.656;2023-08-01T08:44:25;17.41;88.58
68257;DHT22;55069;51.568;4.656;2023-08-01T08:46:54;17.23;85.99
68257;DHT22;55069;51.568;4.656;2023-08-01T08:49:20;17.14;85.96
68257;DHT22;55069;51.568;4.656;2023-08-01T08:51:47;17.35;85.62
68257;DHT22;55069;51.568;4.656;2023-08-01T08:54:13;17.11;84.95
68257;DHT22;55069;51.568;4.656;2023-08-01T08:56:40;17.27;85.78
68257;DHT22;55069;51.568;4.656;2023-08-01T08:59:07;17.47;85.62
68257;DHT22;55069;51.568;4.656;2023-08-01T09:01:32;17.66;83.87
68257;DHT22;55069;51.568;4.656;2023-08-01T09:03:59;17.90;82.84
68257;DHT22;55069;51.568;4.656;2023-08-01T09:06:28;18.14;83.38
68257;DHT22;55069;51.568;4.656;2023-08-01T09:09:12;18.38;80.19
68257;DHT22;55069;51.568;4.656;2023-08-01T09:11:44;18.38;80.74
68257;DHT22;55069;51.568;4.656;2023-08-01T09:14:10;18.41;80.27
68257;DHT22;55069;51.568;4.656;2023-08-01T09:16:36;18.51;78.97
68257;DHT22;55069;51.568;4.656;2023-08-01T09:19:02;18.75;81.20
68257;DHT22;55069;51.568;4.656;2023-08-01T09:21:31;18.68;79.20
68257;DHT22;55069;51.568;4.656;2023-08-01T09:24:10;18.48;79.71
68257;DHT22;55069;51.568;4.656;2023-08-01T09:26:36;18.03;80.94
68257;DHT22;55069;51.568;4.656;2023-08-01T09:29:02;17.74;83.59
68257;DHT22;55069;51.568;4.656;2023-08-01T09:31:36;17.82;83.89
68257;DHT22;55069;51.568;4.656;2023-08-01T09:34:03;18.14;83.81
68257;DHT22;55069;51.568;4.656;2023-08-01T09:36:31;18.13;81.34
68257;DHT22;55069;51.568;4.656;2023-08-01T09:39:03;18.16;84.19
68257;DHT22;55069;51.568;4.656;2023-08-01T09:41:30;18.16;82.80
68257;DHT22;55069;51.568;4.656;2023-08-01T09:43:56;17.95;80.46
68257;DHT22;55069;51.568;4.656;2023-08-01T09:46:22;17.90;81.79
68257;DHT22;55069;51.568;4.656;2023-08-01T09:48:47;17.82;82.08
68257;DHT22;55069;51.568;4.656;2023-08-01T09:51:14;17.72;83.14
68257;DHT22;55069;51.568;4.656;2023-08-01T09:53:50;17.72;82.30
68257;DHT22;55069;51.568;4.656;2023-08-01T09:56:27;17.79;82.48
68257;DHT22;55069;51.568;4.656;2023-08-01T09:58:55;18.16;81.45
68257;DHT22;55069;51.568;4.656;2023-08-01T10:01:22;18.73;78.83
68257;DHT22;55069;51.568;4.656;2023-08-01T10:03:50;18.94;79.64
68257;DHT22;55069;51.568;4.656;2023-08-01T10:06:20;18.72;78.80
68257;DHT22;55069;51.568;4.656;2023-08-01T10:08:47;18.65;78.28
68257;DHT22;55069;51.568;4.656;2023-08-01T10:11:16;19.00;75.76
68257;DHT22;55069;51.568;4.656;2023-08-01T10:13:42;18.99;73.12
68257;DHT22;55069;51.568;4.656;2023-08-01T10:16:09;18.75;73.35
68257;DHT22;55069;51.568;4.656;2023-08-01T10:18:36;18.52;74.85
68257;DHT22;55069;51.568;4.656;2023-08-01T10:21:04;18.37;74.41
68257;DHT22;55069;51.568;4.656;2023-08-01T10:23:32;18.89;75.09
68257;DHT22;55069;51.568;4.656;2023-08-01T10:25:59;19.13;73.98
68257;DHT22;55069;51.568;4.656;2023-08-01T10:28:35;19.20;74.14
68257;DHT22;55069;51.568;4.656;2023-08-01T10:31:14;19.49;72.78
68257;DHT22;55069;51.568;4.656;2023-08-01T10:33:43;19.51;74.37
68257;DHT22;55069;51.568;4.656;2023-08-01T10:36:35;19.24;74.80
68257;DHT22;55069;51.568;4.656;2023-08-01T10:39:02;19.10;74.59
68257;DHT22;55069;51.568;4.656;2023-08-01T10:41:30;18.96;74.62
68257;DHT22;55069;51.568;4.656;2023-08-01T10:44:14;19.03;75.83
68257;DHT22;55069;51.568;4.656;2023-08-01T10:46:53;18.91;75.52
68257;DHT22;55069;51.568;4.656;2023-08-01T10:49:20;18.87;75.84
68257;DHT22;55069;51.568;4.656;2023-08-01T10:51:49;18.89;77.20
68257;DHT22;55069;51.568;4.656;2023-08-01T10:54:22;18.82;78.47
68257;DHT22;55069;51.568;4.656;2023-08-01T10:56:50;18.55;80.05
68257;DHT22;55069;51.568;4.656;2023-08-01T10:59:16;18.58;80.97
68257;DHT22;55069;51.568;4.656;2023-08-01T11:01:52;18.60;79.00
68257;DHT22;55069;51.568;4.656;2023-08-01T11:04:21;18.54;78.93
68257;DHT22;55069;51.568;4.656;2023-08-01T11:06:49;18.58;80.93
68257;DHT22;55069;51.568;4.656;2023-08-01T11:09:20;18.27;79.26
68257;DHT22;55069;51.568;4.656;2023-08-01T11:11:48;18.44;81.13
68257;DHT22;55069;51.568;4.656;2023-08-01T11:14:14;18.51;79.40
68257;DHT22;55069;51.568;4.656;2023-08-01T11:16:40;18.43;80.33
68257;DHT22;55069;51.568;4.656;2023-08-01T11:19:17;18.38;78.56
68257;DHT22;55069;51.568;4.656;2023-08-01T11:21:43;18.44;77.35
68257;DHT22;55069;51.568;4.656;2023-08-01T11:24:09;18.62;77.18
68257;DHT22;55069;51.568;4.656;2023-08-01T11:26:34;18.67;76.29
68257;DHT22;55069;51.568;4.656;2023-08-01T11:29:02;18.62;76.52
68257;DHT22;55069;51.568;4.656;2023-08-01T11:31:28;18.71;76.59
68257;DHT22;55069;51.568;4.656;2023-08-01T11:33:57;18.85;76.11
68257;DHT22;55069;51.568;4.656;2023-08-01T11:36:26;18.87;78.50
68257;DHT22;55069;51.568;4.656;2023-08-01T11:38:52;19.16;77.27
68257;DHT22;55069;51.568;4.656;2023-08-01T11:41:17;19.36;77.94
68257;DHT22;55069;51.568;4.656;2023-08-01T11:43:43;19.15;76.20
68257;DHT22;55069;51.568;4.656;2023-08-01T11:46:09;18.88;76.85
68257;DHT22;55069;51.568;4.656;2023-08-01T11:48:35;18.72;76.83
68257;DHT22;55069;51.568;4.656;2023-08-01T11:51:01;19.08;78.00
68257;DHT22;55069;51.568;4.656;2023-08-01T11:53:28;19.10;75.47
68257;DHT22;55069;51.568;4.656;2023-08-01T11:55:55;19.00;75.14
68257;DHT22;55069;51.568;4.656;2023-08-01T11:58:40;18.91;74.55
68257;DHT22;55069;51.568;4.656;2023-08-01T12:01:07;18.82;74.07
68257;DHT22;55069;51.568;4.656;2023-08-01T12:03:47;19.26;73.04
68257;DHT22;55069;51.568;4.656;2023-08-01T12:06:14;19.53;72.05
68257;DHT22;55069;51.568;4.656;2023-08-01T12:08:45;19.54;70.65
68257;DHT22;55069;51.568;4.656;2023-08-01T12:11:24;19.54;69.07
68257;DHT22;55069;51.568;4.656;2023-08-01T12:14:10;19.50;70.72
68257;DHT22;55069;51.568;4.656;2023-08-01T12:16:39;19.94;69.04
68257;DHT22;55069;51.568;4.656;2023-08-01T12:19:05;20.22;70.23
68257;DHT22;55069;51.568;4.656;2023-08-01T12:21:32;19.81;70.23
68257;DHT22;55069;51.568;4.656;2023-08-01T12:23:58;20.15;70.75
68257;DHT22;55069;51.568;4.656;2023-08-01T12:26:24;20.74;69.32
68257;DHT22;55069;51.568;4.656;2023-08-01T12:28:50;20.81;66.47
68257;DHT22;55069;51.568;4.656;2023-08-01T12:31:17;20.57;67.59
68257;DHT22;55069;51.568;4.656;2023-08-01T12:33:44;20.26;68.00
68257;DHT22;55069;51.568;4.656;2023-08-01T12:36:09;20.77;67.81
68257;DHT22;55069;51.568;4.656;2023-08-01T12:38:35;20.98;66.31
68257;DHT22;55069;51.568;4.656;2023-08-01T12:41:01;21.34;67.18
68257;DHT22;55069;51.568;4.656;2023-08-01T12:43:27;21.34;66.22
68257;DHT22;55069;51.568;4.656;2023-08-01T12:45:52;21.02;67.69
68257;DHT22;55069;51.568;4.656;2023-08-01T12:48:18;20.71;68.21
68257;DHT22;55069;51.568;4.656;2023-08-01T12:50:47;21.02;66.85
68257;DHT22;55069;51.568;4.656;2023-08-01T12:53:13;20.81;67.80
68257;DHT22;55069;51.568;4.656;2023-08-01T12:55:46;20.56;65.13
68257;DHT22;55069;51.568;4.656;2023-08-01T12:58:12;20.39;65.58
68257;DHT22;55069;51.568;4.656;2023-08-01T13:00:40;20.25;66.79
68257;DHT22;55069;51.568;4.656;2023-08-01T13:03:05;20.39;67.82
68257;DHT22;55069;51.568;4.656;2023-08-01T13:05:34;20.18;67.44
68257;DHT22;55069;51.568;4.656;2023-08-01T13:08:00;20.39;67.76
68257;DHT22;55069;51.568;4.656;2023-08-01T13:10:25;20.81;67.93
68257;DHT22;55069;51.568;4.656;2023-08-01T13:12:52;20.25;67.53
68257;DHT22;55069;51.568;4.656;2023-08-01T13:15:17;20.63;67.11
68257;DHT22;55069;51.568;4.656;2023-08-01T13:17:43;20.54;66.92
68257;DHT22;55069;51.568;4.656;2023-08-01T13:20:09;20.74;64.91
68257;DHT22;55069;51.568;4.656;2023-08-01T13:22:35;20.87;65.55
68257;DHT22;55069;51.568;4.656;2023-08-01T13:25:00;21.04;64.15
68257;DHT22;55069;51.568;4.656;2023-08-01T13:27:27;21.01;65.28
68257;DHT22;55069;51.568;4.656;2023-08-01T13:29:53;20.83;65.10
68257;DHT22;55069;51.568;4.656;2023-08-01T13:32:19;20.66;64.64
68257;DHT22;55069;51.568;4.656;2023-08-01T13:34:44;20.66;64.62
68257;DHT22;55069;51.568;4.656;2023-08-01T13:37:11;21.24;64.44
68257;DHT22;55069;51.568;4.656;2023-08-01T13:39:37;20.63;64.77
68257;DHT22;55069;51.568;4.656;2023-08-01T13:42:03;20.52;64.80
68257;DHT22;55069;51.568;4.656;2023-08-01T13:44:29;20.54;65.66
68257;DHT22;55069;51.568;4.656;2023-08-01T13:46:54;20.47;66.17
68257;DHT22;55069;51.568;4.656;2023-08-01T13:49:20;20.02;66.73
68257;DHT22;55069;51.568;4.656;2023-08-01T13:51:45;19.96;65.58
68257;DHT22;55069;51.568;4.656;2023-08-01T13:54:11;20.54;64.50
68257;DHT22;55069;51.568;4.656;2023-08-01T13:56:37;20.83;63.23
68257;DHT22;55069;51.568;4.656;2023-08-01T13:59:03;20.57;63.18
68257;DHT22;55069;51.568;4.656;2023-08-01T14:01:28;20.49;64.37
68257;DHT22;55069;51.568;4.656;2023-08-01T14:03:54;20.26;64.25
68257;DHT22;55069;51.568;4.656;2023-08-01T14:06:19;20.73;63.86
68257;DHT22;55069;51.568;4.656;2023-08-01T14:08:46;21.07;64.66
68257;DHT22;55069;51.568;4.656;2023-08-01T14:11:11;20.92;63.91
68257;DHT22;55069;51.568;4.656;2023-08-01T14:13:37;21.04;62.67
68257;DHT22;55069;51.568;4.656;2023-08-01T14:16:02;21.05;64.38
68257;DHT22;55069;51.568;4.656;2023-08-01T14:18:29;21.27;63.11
68257;DHT22;55069;51.568;4.656;2023-08-01T14:20:54;21.27;62.01
68257;DHT22;55069;51.568;4.656;2023-08-01T14:23:21;21.77;61.34
68257;DHT22;55069;51.568;4.656;2023-08-01T14:25:47;21.79;59.89
68257;DHT22;55069;51.568;4.656;2023-08-01T14:28:12;21.76;60.14
68257;DHT22;55069;51.568;4.656;2023-08-01T14:30:38;21.29;60.09
68257;DHT22;55069;51.568;4.656;2023-08-01T14:33:08;21.15;61.51
68257;DHT22;55069;51.568;4.656;2023-08-01T14:35:35;20.90;62.11
68257;DHT22;55069;51.568;4.656;2023-08-01T14:38:00;20.60;62.95
68257;DHT22;55069;51.568;4.656;2023-08-01T14:40:26;21.01;61.74
68257;DHT22;55069;51.568;4.656;2023-08-01T14:42:52;20.83;62.43
68257;DHT22;55069;51.568;4.656;2023-08-01T14:45:18;20.90;63.29
68257;DHT22;55069;51.568;4.656;2023-08-01T14:47:44;20.73;63.81
68257;DHT22;55069;51.568;4.656;2023-08-01T14:50:11;20.73;63.69
68257;DHT22;55069;51.568;4.656;2023-08-01T14:52:37;20.83;64.57
68257;DHT22;55069;51.568;4.656;2023-08-01T14:55:03;20.94;63.61
68257;DHT22;55069;51.568;4.656;2023-08-01T14:57:29;21.12;63.71
68257;DHT22;55069;51.568;4.656;2023-08-01T14:59:54;21.25;63.42
68257;DHT22;55069;51.568;4.656;2023-08-01T15:02:20;21.50;62.33
68257;DHT22;55069;51.568;4.656;2023-08-01T15:04:50;21.22;62.57
68257;DHT22;55069;51.568;4.656;2023-08-01T15:07:15;21.11;63.32
68257;DHT22;55069;51.568;4.656;2023-08-01T15:09:44;20.84;60.69
68257;DHT22;55069;51.568;4.656;2023-08-01T15:12:11;20.56;60.98
68257;DHT22;55069;51.568;4.656;2023-08-01T15:14:37;20.54;62.02
68257;DHT22;55069;51.568;4.656;2023-08-01T15:17:03;20.83;62.85
68257;DHT22;55069;51.568;4.656;2023-08-01T15:19:29;20.56;62.39
68257;DHT22;55069;51.568;4.656;2023-08-01T15:21:55;20.97;63.42
68257;DHT22;55069;51.568;4.656;2023-08-01T15:24:20;20.84;63.59
68257;DHT22;55069;51.568;4.656;2023-08-01T15:26:46;20.88;63.92
68257;DHT22;55069;51.568;4.656;2023-08-01T15:29:13;20.71;62.94